Time;durP1;ratioP1;P1;durP2;ratioP2;P2;SDS_P1;SDS_P2;PMS_P1;PMS_P2;Temp;Humidity;BMP_temperature;BMP_pressure;BME280_temperature;BME280_humidity;BME280_pressure;Samples;Min_cycle;Max_cycle;Signal;HPM_P1;HPM_P2
2021/11/09 00:00:43;;;;;;;63.70;57.00;;;;;22.30;101404.00;;;;2076950;28;20600;-47
2021/11/09 00:01:50;;;;;;;64.20;54.17;;;;;22.30;101412.00;;;;2078956;28;20240;-46
2021/11/09 00:02:51;;;;;;;61.72;55.30;;;;;22.30;101406.00;;;;2074746;28;20293;-48
2021/11/09 00:04:05;;;;;;;59.40;53.13;;;;;22.30;101402.00;;;;2078895;28;20221;-49
2021/11/09 00:05:07;;;;;;;60.25;52.13;;;;;22.30;101404.00;;;;2078790;28;20358;-47
2021/11/09 00:06:25;;;;;;;65.35;54.13;;;;;22.30;101398.00;;;;2078902;28;20213;-47
2021/11/09 00:07:31;;;;;;;57.30;51.05;;;;;22.30;101405.00;;;;2078808;28;20296;-45
2021/11/09 00:08:39;;;;;;;56.30;49.95;;;;;22.20;101407.00;;;;2074879;28;20313;-51
2021/11/09 00:10:13;;;;;;;54.20;47.45;;;;;22.20;101403.00;;;;2073960;28;20225;-49
2021/11/09 00:11:06;;;;;;;52.05;46.42;;;;;22.20;101402.00;;;;2068678;28;20217;-46
2021/11/09 00:12:06;;;;;;;52.57;46.97;;;;;22.20;101402.00;;;;2069498;28;20208;-46
2021/11/09 00:13:07;;;;;;;54.23;48.30;;;;;22.20;101408.00;;;;2070202;28;20202;-47
2021/11/09 00:14:07;;;;;;;51.30;45.60;;;;;22.20;101412.00;;;;2073161;28;20229;-46
2021/11/09 00:15:10;;;;;;;50.70;44.70;;;;;22.20;101415.00;;;;2078280;28;20698;-48
2021/11/09 00:16:10;;;;;;;49.80;44.08;;;;;22.20;101404.00;;;;2074266;28;20222;-47
2021/11/09 00:17:11;;;;;;;49.77;44.43;;;;;22.10;101405.00;;;;2078051;28;20221;-46
2021/11/09 00:18:11;;;;;;;48.00;42.80;;;;;22.20;101412.00;;;;2078278;28;20463;-47
2021/11/09 00:19:12;;;;;;;47.17;42.03;;;;;22.20;101414.00;;;;2077040;28;20213;-48
2021/11/09 00:20:14;;;;;;;45.53;40.53;;;;;22.20;101415.00;;;;2071189;28;20213;-48
2021/11/09 00:21:16;;;;;;;46.33;40.95;;;;;22.10;101412.00;;;;2076109;28;20308;-46
2021/11/09 00:22:16;;;;;;;44.72;39.92;;;;;22.10;101411.00;;;;2071680;28;20309;-47
2021/11/09 00:23:17;;;;;;;44.30;37.83;;;;;22.10;101408.00;;;;2070813;28;20210;-48
2021/11/09 00:24:17;;;;;;;44.00;39.20;;;;;22.10;101407.00;;;;2078313;28;20221;-45
2021/11/09 00:25:18;;;;;;;44.40;38.43;;;;;22.10;101405.00;;;;2078829;28;20629;-45
2021/11/09 00:26:19;;;;;;;42.93;37.03;;;;;22.10;101408.00;;;;2078516;28;20239;-46
2021/11/09 00:27:20;;;;;;;39.53;35.40;;;;;22.10;101409.00;;;;2075144;28;20535;-46
2021/11/09 00:28:20;;;;;;;38.97;34.78;;;;;22.10;101412.00;;;;2071699;28;20214;-47
2021/11/09 00:29:20;;;;;;;39.80;35.43;;;;;22.10;101411.00;;;;2076019;28;20288;-47
2021/11/09 00:30:22;;;;;;;40.43;36.03;;;;;22.10;101418.00;;;;2078711;28;20218;-46
2021/11/09 00:31:22;;;;;;;38.80;34.63;;;;;22.10;101425.00;;;;2078038;28;20209;-50
2021/11/09 00:32:22;;;;;;;37.97;33.90;;;;;22.10;101415.00;;;;2070836;28;20325;-48
2021/11/09 00:33:23;;;;;;;37.87;32.67;;;;;22.10;101417.00;;;;2077790;28;20210;-49
2021/11/09 00:34:23;;;;;;;37.07;33.07;;;;;22.10;101423.00;;;;2076007;28;20221;-46
2021/11/09 00:35:25;;;;;;;39.00;32.70;;;;;22.10;101420.00;;;;2078766;28;20662;-46
2021/11/09 00:36:25;;;;;;;38.08;32.53;;;;;22.10;101415.00;;;;2072639;28;20281;-47
2021/11/09 00:37:26;;;;;;;36.80;32.40;;;;;22.10;101416.00;;;;2078710;28;20216;-45
2021/11/09 00:38:27;;;;;;;34.33;30.67;;;;;22.10;101421.00;;;;2073066;28;20721;-45
2021/11/09 00:39:27;;;;;;;36.40;30.90;;;;;22.00;101412.00;;;;2071456;28;20811;-46
2021/11/09 00:40:28;;;;;;;34.43;30.70;;;;;22.10;101426.00;;;;2072016;28;20217;-47
2021/11/09 00:41:29;;;;;;;33.35;29.85;;;;;22.00;101416.00;;;;2073214;28;20224;-47
2021/11/09 00:42:29;;;;;;;33.50;29.77;;;;;22.00;101421.00;;;;2078814;28;20220;-46
2021/11/09 00:43:30;;;;;;;33.37;29.77;;;;;22.00;101425.00;;;;2072159;28;20210;-47
2021/11/09 00:44:30;;;;;;;33.60;30.10;;;;;22.00;101422.00;;;;2072336;28;20213;-46
2021/11/09 00:45:31;;;;;;;32.30;28.90;;;;;22.00;101427.00;;;;2076172;28;20210;-48
2021/11/09 00:46:31;;;;;;;29.97;26.77;;;;;22.00;101424.00;;;;2079511;28;20217;-46
2021/11/09 00:47:31;;;;;;;31.37;28.03;;;;;22.00;101424.00;;;;2080439;28;20559;-46
2021/11/09 00:48:32;;;;;;;31.93;27.20;;;;;22.00;101431.00;;;;2079777;28;20270;-49
2021/11/09 00:49:32;;;;;;;31.83;27.00;;;;;22.00;101431.00;;;;2072023;28;20226;-47
2021/11/09 00:50:32;;;;;;;29.23;26.03;;;;;22.00;101421.00;;;;2079300;28;20249;-48
2021/11/09 00:51:33;;;;;;;31.70;28.23;;;;;22.00;101428.00;;;;2075137;28;20628;-50
2021/11/09 00:52:33;;;;;;;29.87;26.53;;;;;22.00;101419.00;;;;2074335;28;20214;-47
2021/11/09 00:53:33;;;;;;;30.10;26.40;;;;;22.00;101429.00;;;;2077546;28;20213;-46
2021/11/09 00:54:35;;;;;;;29.80;25.20;;;;;22.00;101427.00;;;;2072470;28;20211;-46
2021/11/09 00:55:35;;;;;;;28.23;25.10;;;;;21.90;101422.00;;;;2078963;28;20964;-48
2021/11/09 00:56:36;;;;;;;27.90;24.90;;;;;21.90;101423.00;;;;2075913;28;20221;-48
2021/11/09 00:57:37;;;;;;;29.73;25.93;;;;;21.90;101425.00;;;;2076227;28;20308;-46
2021/11/09 00:58:37;;;;;;;27.53;24.57;;;;;21.90;101420.00;;;;2080263;28;21020;-47
2021/11/09 00:59:38;;;;;;;25.13;22.43;;;;;21.90;101426.00;;;;2079104;28;20518;-46
2021/11/09 01:00:38;;;;;;;27.80;23.80;;;;;22.00;101422.00;;;;2076360;28;20326;-45
2021/11/09 01:01:39;;;;;;;26.77;23.97;;;;;21.90;101422.00;;;;2080180;28;20223;-45
2021/11/09 01:02:42;;;;;;;26.33;23.63;;;;;21.90;101420.00;;;;2073253;28;20214;-48
2021/11/09 01:03:43;;;;;;;25.35;22.02;;;;;21.90;101426.00;;;;2076143;28;20227;-46
2021/11/09 01:04:43;;;;;;;25.57;23.07;;;;;21.90;101430.00;;;;2075693;28;20652;-48
2021/11/09 01:05:44;;;;;;;24.23;21.63;;;;;21.90;101430.00;;;;2076863;28;20577;-47
2021/11/09 01:06:45;;;;;;;25.80;22.37;;;;;21.90;101427.00;;;;2075016;28;20268;-45
2021/11/09 01:07:47;;;;;;;25.07;22.23;;;;;21.90;101425.00;;;;2077727;28;20300;-49
2021/11/09 01:08:47;;;;;;;25.67;20.85;;;;;21.90;101433.00;;;;2073249;28;20489;-48
2021/11/09 01:09:47;;;;;;;24.87;22.13;;;;;21.90;101434.00;;;;2073992;28;20217;-48
2021/11/09 01:10:49;;;;;;;23.23;20.80;;;;;21.80;101431.00;;;;2076969;28;20549;-48
2021/11/09 01:11:50;;;;;;;24.48;21.88;;;;;21.90;101436.00;;;;2072011;28;20221;-47
2021/11/09 01:12:51;;;;;;;24.88;21.67;;;;;21.90;101431.00;;;;2076467;28;20213;-46
2021/11/09 01:13:51;;;;;;;24.13;20.20;;;;;21.80;101436.00;;;;2079751;28;20214;-50
2021/11/09 01:14:52;;;;;;;21.73;19.43;;;;;21.90;101431.00;;;;2076271;28;20269;-48
2021/11/09 01:15:53;;;;;;;25.10;20.87;;;;;21.90;101428.00;;;;2074297;28;20221;-48
2021/11/09 01:16:53;;;;;;;21.35;19.05;;;;;21.80;101429.00;;;;2071884;28;20218;-47
2021/11/09 01:17:54;;;;;;;22.63;19.93;;;;;21.80;101434.00;;;;2076131;28;20214;-50
2021/11/09 01:18:55;;;;;;;21.87;19.57;;;;;21.80;101434.00;;;;2074500;28;20241;-46
2021/11/09 01:19:56;;;;;;;22.15;19.73;;;;;21.80;101433.00;;;;2076074;28;20686;-49
2021/11/09 01:20:56;;;;;;;20.13;17.80;;;;;21.80;101433.00;;;;2071767;28;20210;-47
2021/11/09 01:21:57;;;;;;;19.77;17.70;;;;;21.80;101433.00;;;;2074674;28;20246;-46
2021/11/09 01:22:58;;;;;;;21.50;17.90;;;;;21.80;101429.00;;;;2073185;28;20675;-46
2021/11/09 01:23:58;;;;;;;19.75;17.38;;;;;21.80;101421.00;;;;2079915;28;20624;-46
2021/11/09 01:24:59;;;;;;;21.43;18.00;;;;;21.80;101428.00;;;;2080125;28;20222;-46
2021/11/09 01:26:00;;;;;;;21.70;18.67;;;;;21.80;101429.00;;;;2079186;28;20252;-51
2021/11/09 01:27:01;;;;;;;20.83;18.60;;;;;21.80;101428.00;;;;2079359;28;20284;-47
2021/11/09 01:28:01;;;;;;;19.73;17.70;;;;;21.80;101419.00;;;;2079808;28;20471;-47
2021/11/09 01:29:03;;;;;;;20.03;17.10;;;;;21.80;101427.00;;;;2075640;28;20214;-46
2021/11/09 01:30:05;;;;;;;20.60;18.38;;;;;21.80;101424.00;;;;2078964;28;20221;-46
2021/11/09 01:31:06;;;;;;;22.58;17.55;;;;;21.80;101426.00;;;;2077612;28;20202;-49
2021/11/09 01:32:07;;;;;;;19.10;16.20;;;;;21.80;101422.00;;;;2073655;28;20206;-46
2021/11/09 01:33:07;;;;;;;25.83;22.20;;;;;21.50;101410.00;;;;2078789;28;20224;-46
2021/11/09 01:34:08;;;;;;;20.07;18.00;;;;;21.50;101417.00;;;;2076325;28;20481;-47
2021/11/09 01:35:09;;;;;;;24.17;19.70;;;;;21.60;101411.00;;;;2079585;28;20613;-47
2021/11/09 01:36:10;;;;;;;22.25;17.67;;;;;21.70;101413.00;;;;2079732;28;20209;-46
2021/11/09 01:37:12;;;;;;;18.87;16.73;;;;;21.70;101412.00;;;;2076244;28;20698;-46
2021/11/09 01:38:12;;;;;;;19.05;17.05;;;;;21.80;101412.00;;;;2079332;28;20213;-46
2021/11/09 01:39:13;;;;;;;19.43;16.40;;;;;21.80;101407.00;;;;2066851;28;20217;-49
2021/11/09 01:40:13;;;;;;;20.43;16.87;;;;;21.80;101405.00;;;;2077745;28;20229;-47
2021/11/09 01:41:14;;;;;;;20.50;16.33;;;;;21.80;101410.00;;;;2082379;28;20256;-46
2021/11/09 01:42:14;;;;;;;21.33;16.93;;;;;21.80;101408.00;;;;2080024;28;20635;-46
2021/11/09 01:43:15;;;;;;;19.27;14.70;;;;;21.80;101404.00;;;;2072067;28;20226;-47
2021/11/09 01:44:16;;;;;;;17.43;14.43;;;;;21.80;101399.00;;;;2075870;28;20210;-48
2021/11/09 01:45:16;;;;;;;16.07;14.37;;;;;21.80;101396.00;;;;2076658;28;20897;-47
2021/11/09 01:46:17;;;;;;;19.00;15.23;;;;;21.80;101400.00;;;;2075926;28;20304;-49
2021/11/09 01:47:18;;;;;;;19.10;14.27;;;;;21.80;101400.00;;;;2074216;28;20218;-47
2021/11/09 01:48:18;;;;;;;15.63;14.03;;;;;21.80;101404.00;;;;2070700;28;20210;-46
2021/11/09 01:49:19;;;;;;;19.27;15.23;;;;;21.80;101405.00;;;;2074912;28;20214;-46
2021/11/09 01:50:22;;;;;;;17.17;14.20;;;;;21.80;101395.00;;;;2075114;28;20695;-48
2021/11/09 01:51:22;;;;;;;18.33;14.05;;;;;21.80;101400.00;;;;2075769;28;20217;-46
2021/11/09 01:52:23;;;;;;;14.90;13.30;;;;;21.80;101415.00;;;;2076188;28;21872;-50
2021/11/09 01:53:23;;;;;;;21.70;14.87;;;;;21.80;101411.00;;;;2079517;28;20304;-48
2021/11/09 01:54:24;;;;;;;15.20;13.60;;;;;21.80;101411.00;;;;2078017;28;20225;-46
2021/11/09 01:55:25;;;;;;;16.20;13.70;;;;;21.80;101407.00;;;;2071872;28;20275;-47
2021/11/09 01:56:28;;;;;;;18.30;13.30;;;;;21.80;101411.00;;;;2071589;28;20387;-47
2021/11/09 01:57:28;;;;;;;14.82;12.23;;;;;21.80;101417.00;;;;2079128;28;20304;-47
2021/11/09 01:58:30;;;;;;;15.33;13.17;;;;;21.80;101413.00;;;;2075102;28;20210;-47
2021/11/09 01:59:31;;;;;;;14.95;12.20;;;;;21.80;101415.00;;;;2070702;28;20221;-45
2021/11/09 02:00:35;;;;;;;14.98;11.77;;;;;21.80;101427.00;;;;2079341;28;20224;-50
2021/11/09 02:01:35;;;;;;;15.80;11.98;;;;;21.80;101422.00;;;;2079566;28;20244;-48
2021/11/09 02:02:36;;;;;;;16.33;13.40;;;;;21.70;101427.00;;;;2079708;28;20220;-46
2021/11/09 02:03:38;;;;;;;13.53;12.10;;;;;21.80;101427.00;;;;2076163;28;20693;-47
2021/11/09 02:04:39;;;;;;;14.15;12.10;;;;;21.80;101427.00;;;;2072124;28;20659;-45
2021/11/09 02:05:39;;;;;;;13.37;11.60;;;;;21.70;101428.00;;;;2075501;28;20225;-48
2021/11/09 02:06:40;;;;;;;14.57;12.50;;;;;21.70;101425.00;;;;2071782;28;20679;-46
2021/11/09 02:07:47;;;;;;;13.33;11.40;;;;;21.70;101432.00;;;;2072160;28;20210;-47
2021/11/09 02:08:48;;;;;;;12.93;10.80;;;;;21.70;101426.00;;;;2075971;28;20237;-48
2021/11/09 02:09:48;;;;;;;13.93;11.20;;;;;21.70;101421.00;;;;2077504;28;20236;-48
2021/11/09 02:10:48;;;;;;;13.47;11.27;;;;;21.70;101426.00;;;;2079243;28;20213;-47
2021/11/09 02:11:49;;;;;;;15.90;12.10;;;;;21.70;101427.00;;;;2075226;28;20718;-46
2021/11/09 02:12:49;;;;;;;13.07;10.70;;;;;21.70;101426.00;;;;2078778;28;20217;-46
2021/11/09 02:13:50;;;;;;;14.67;11.97;;;;;21.70;101426.00;;;;2071682;28;20214;-49
2021/11/09 02:14:50;;;;;;;14.40;11.50;;;;;21.70;101430.00;;;;2078889;28;20690;-47
2021/11/09 02:15:50;;;;;;;13.10;11.40;;;;;21.70;101441.00;;;;2077051;28;20557;-47
2021/11/09 02:16:51;;;;;;;13.60;11.37;;;;;21.70;101430.00;;;;2077091;28;20228;-48
2021/11/09 02:17:52;;;;;;;13.00;10.43;;;;;21.70;101431.00;;;;2068441;28;20223;-50
2021/11/09 02:18:52;;;;;;;13.33;11.00;;;;;21.50;101438.00;;;;2080808;28;20600;-46
2021/11/09 02:19:53;;;;;;;13.10;11.40;;;;;21.70;101430.00;;;;2085037;28;20221;-48
2021/11/09 02:21:02;;;;;;;11.53;9.80;;;;;21.70;101426.00;;;;2070127;28;20790;-48
2021/11/09 02:22:03;;;;;;;12.52;10.00;;;;;21.70;101441.00;;;;2065899;28;20238;-46
2021/11/09 02:23:03;;;;;;;11.70;9.93;;;;;21.70;101429.00;;;;2073425;28;20214;-46
2021/11/09 02:24:04;;;;;;;13.30;10.47;;;;;21.70;101433.00;;;;2074087;28;20205;-48
2021/11/09 02:25:06;;;;;;;13.83;10.60;;;;;21.60;101429.00;;;;2072353;28;20226;-48
2021/11/09 02:26:06;;;;;;;10.60;9.18;;;;;21.60;101437.00;;;;2075277;28;20244;-48
2021/11/09 02:27:07;;;;;;;13.50;10.00;;;;;21.60;101424.00;;;;2072578;28;20218;-52
2021/11/09 02:28:07;;;;;;;12.77;9.60;;;;;21.60;101432.00;;;;2074344;28;20221;-46
2021/11/09 02:29:08;;;;;;;10.67;9.47;;;;;21.60;101435.00;;;;2072017;28;20217;-48
2021/11/09 02:30:10;;;;;;;10.17;8.93;;;;;21.60;101435.00;;;;2077509;28;20217;-48
2021/11/09 02:31:10;;;;;;;12.77;9.85;;;;;21.60;101435.00;;;;2073734;28;21310;-49
2021/11/09 02:32:11;;;;;;;12.27;9.07;;;;;21.70;101435.00;;;;2079197;28;20216;-48
2021/11/09 02:33:11;;;;;;;11.33;9.00;;;;;21.60;101439.00;;;;2079181;28;20295;-46
2021/11/09 02:34:12;;;;;;;11.00;9.13;;;;;21.60;101428.00;;;;2079260;28;20230;-46
2021/11/09 02:35:13;;;;;;;11.43;9.20;;;;;21.60;101450.00;;;;2075096;28;20222;-47
2021/11/09 02:36:14;;;;;;;12.75;9.57;;;;;21.60;101446.00;;;;2071288;28;20218;-48
2021/11/09 02:37:15;;;;;;;11.57;9.93;;;;;21.60;101436.00;;;;2075093;28;20214;-47
2021/11/09 02:38:16;;;;;;;10.45;8.85;;;;;21.60;101437.00;;;;2077344;28;20780;-47
2021/11/09 02:39:17;;;;;;;11.03;8.93;;;;;21.60;101443.00;;;;2072028;28;20264;-48
2021/11/09 02:40:19;;;;;;;11.57;9.38;;;;;21.60;101445.00;;;;2075254;28;20222;-45
2021/11/09 02:41:19;;;;;;;12.52;9.40;;;;;21.60;101441.00;;;;2075136;28;20283;-47
2021/11/09 02:42:20;;;;;;;8.83;7.93;;;;;21.60;101446.00;;;;2078954;28;20670;-46
2021/11/09 02:43:21;;;;;;;9.90;8.90;;;;;21.60;101449.00;;;;2072288;28;20237;-46
2021/11/09 02:44:25;;;;;;;11.52;9.18;;;;;21.60;101443.00;;;;2077931;28;20509;-47
2021/11/09 02:47:09;;;;;;;11.07;8.75;;;;;21.60;101452.00;;;;2066598;28;20237;-46
2021/11/09 02:48:14;;;;;;;9.77;7.90;;;;;21.60;101446.00;;;;2069450;28;20218;-46
2021/11/09 02:50:20;;;;;;;9.60;8.18;;;;;21.60;101441.00;;;;2074535;28;20205;-46
2021/11/09 02:51:28;;;;;;;10.85;8.23;;;;;21.60;101456.00;;;;2074525;28;20224;-48
2021/11/09 02:52:30;;;;;;;14.18;7.93;;;;;21.50;101454.00;;;;2074977;28;20204;-46
2021/11/09 02:54:38;;;;;;;8.60;7.30;;;;;21.60;101465.00;;;;2075028;28;20388;-49
2021/11/09 02:55:42;;;;;;;9.48;7.55;;;;;21.60;101457.00;;;;2079331;28;20217;-46
2021/11/09 02:58:12;;;;;;;10.30;7.87;;;;;21.50;101448.00;;;;2079272;28;20240;-50
2021/11/09 03:02:14;;;;;;;8.93;7.60;;;;;21.50;101456.00;;;;2074862;28;20209;-48
2021/11/09 03:02:50;;;;;;;9.18;7.43;;;;;21.50;101450.00;;;;2072394;28;20560;-47
2021/11/09 03:04:03;;;;;;;10.98;7.32;;;;;21.50;101447.00;;;;2078806;28;20213;-46
2021/11/09 03:07:11;;;;;;;9.63;6.82;;;;;21.50;101451.00;;;;2075615;28;20725;-49
2021/11/09 03:08:25;;;;;;;9.85;8.02;;;;;21.50;101444.00;;;;2079186;28;20528;-47
2021/11/09 03:10:45;;;;;;;9.13;7.70;;;;;21.50;101447.00;;;;2078998;28;20209;-46
2021/11/09 03:11:52;;;;;;;8.07;6.88;;;;;21.50;101440.00;;;;2079007;28;20218;-49
2021/11/09 03:12:54;;;;;;;10.55;7.90;;;;;21.50;101449.00;;;;2078974;28;20209;-46
2021/11/09 03:13:56;;;;;;;12.75;7.93;;;;;21.50;101445.00;;;;2073188;28;20218;-51
2021/11/09 03:14:56;;;;;;;8.75;6.57;;;;;21.50;101445.00;;;;2073261;28;20210;-47
2021/11/09 03:16:02;;;;;;;7.43;6.60;;;;;21.50;101440.00;;;;2078653;28;20259;-47
2021/11/09 03:17:11;;;;;;;9.38;7.20;;;;;21.50;101440.00;;;;2078921;28;20232;-49
2021/11/09 03:18:15;;;;;;;8.85;7.25;;;;;21.50;101451.00;;;;2073392;28;20206;-46
2021/11/09 03:19:29;;;;;;;11.15;7.25;;;;;21.50;101448.00;;;;2069983;28;20772;-48
2021/11/09 03:45:11;;;;;;;7.93;5.85;;;;;21.40;101461.00;;;;2070075;28;20210;-48
2021/11/09 03:46:11;;;;;;;8.23;6.03;;;;;21.40;101459.00;;;;2074677;28;20249;-51
2021/11/09 03:47:14;;;;;;;9.50;5.87;;;;;21.40;101465.00;;;;2076580;28;20225;-49
2021/11/09 03:48:16;;;;;;;7.47;6.22;;;;;21.40;101471.00;;;;2076402;28;20217;-50
2021/11/09 03:49:19;;;;;;;6.65;5.15;;;;;21.40;101468.00;;;;2073515;28;20222;-50
2021/11/09 03:50:20;;;;;;;5.70;5.03;;;;;21.40;101469.00;;;;2078284;28;20216;-47
2021/11/09 03:51:21;;;;;;;8.30;6.00;;;;;21.40;101472.00;;;;2077581;28;20740;-50
2021/11/09 03:52:24;;;;;;;6.53;5.80;;;;;21.40;101467.00;;;;2073570;28;20304;-51
2021/11/09 03:53:26;;;;;;;6.40;5.80;;;;;21.40;101472.00;;;;2073943;28;20209;-48
2021/11/09 03:54:27;;;;;;;7.90;6.32;;;;;21.40;101479.00;;;;2073085;28;20213;-50
2021/11/09 03:56:37;;;;;;;7.37;5.60;;;;;21.40;101473.00;;;;2070579;28;20441;-47
2021/11/09 03:57:50;;;;;;;5.57;5.00;;;;;21.40;101475.00;;;;2075456;28;20586;-49
2021/11/09 03:58:52;;;;;;;7.35;5.50;;;;;21.40;101472.00;;;;2077645;28;20705;-47
2021/11/09 04:01:01;;;;;;;6.73;5.23;;;;;21.30;101475.00;;;;2078320;28;20300;-51
2021/11/09 04:02:09;;;;;;;6.70;4.95;;;;;21.40;101472.00;;;;2078735;28;20263;-46
2021/11/09 04:05:40;;;;;;;5.95;4.95;;;;;21.30;101468.00;;;;2077737;28;20217;-47
2021/11/09 04:06:45;;;;;;;6.25;5.18;;;;;21.30;101470.00;;;;2070010;28;20218;-46
2021/11/09 04:09:28;;;;;;;8.93;5.47;;;;;21.30;101473.00;;;;2074979;28;20240;-47
2021/11/09 04:12:59;;;;;;;6.82;5.13;;;;;21.30;101467.00;;;;2078551;28;20327;-51
2021/11/09 04:15:30;;;;;;;7.30;5.32;;;;;21.30;101472.00;;;;2078248;28;20264;-49
2021/11/09 04:18:56;;;;;;;5.73;5.07;;;;;21.30;101473.00;;;;2069570;28;20683;-49
2021/11/09 04:25:08;;;;;;;6.07;4.80;;;;;21.30;101469.00;;;;2072375;28;20221;-48
2021/11/09 04:27:31;;;;;;;6.57;4.90;;;;;21.30;101465.00;;;;2070386;28;20218;-50
2021/11/09 04:30:56;;;;;;;6.72;4.65;;;;;21.30;101461.00;;;;2078457;28;20706;-48
2021/11/09 04:42:14;;;;;;;5.22;4.45;;;;;21.30;101467.00;;;;2078035;28;20237;-48
2021/11/09 04:50:58;;;;;;;5.20;4.60;;;;;21.20;101475.00;;;;2078475;28;20213;-48
2021/11/09 04:53:49;;;;;;;5.57;4.13;;;;;21.20;101480.00;;;;2072868;28;20228;-48
2021/11/09 05:10:13;;;;;;;5.57;4.20;;;;;21.20;101487.00;;;;2075669;28;21054;-47
2021/11/09 05:11:15;;;;;;;7.13;4.22;;;;;21.20;101477.00;;;;2073841;28;20224;-49
2021/11/09 05:12:15;;;;;;;6.05;4.68;;;;;21.20;101473.00;;;;2078464;28;20217;-46
2021/11/09 05:13:15;;;;;;;5.37;4.50;;;;;21.10;101481.00;;;;2078206;28;20209;-49
2021/11/09 05:14:16;;;;;;;6.17;4.27;;;;;21.10;101479.00;;;;2078377;28;20214;-50
2021/11/09 05:15:16;;;;;;;5.07;4.13;;;;;21.10;101470.00;;;;2076518;28;20800;-46
2021/11/09 05:16:16;;;;;;;6.00;4.10;;;;;21.10;101478.00;;;;2070202;28;20222;-46
2021/11/09 05:17:17;;;;;;;5.47;4.47;;;;;21.10;101472.00;;;;2070080;28;20973;-46
2021/11/09 05:18:17;;;;;;;5.67;4.27;;;;;21.10;101476.00;;;;2070226;28;20237;-45
2021/11/09 05:19:18;;;;;;;4.60;3.87;;;;;21.20;101481.00;;;;2068714;28;20225;-47
2021/11/09 05:20:18;;;;;;;5.83;4.07;;;;;21.10;101472.00;;;;2069473;28;20198;-47
2021/11/09 05:21:18;;;;;;;5.30;4.20;;;;;21.10;101477.00;;;;2070626;28;20691;-46
2021/11/09 05:22:19;;;;;;;4.63;4.13;;;;;21.10;101479.00;;;;2074092;28;20300;-46
2021/11/09 05:23:20;;;;;;;5.93;4.50;;;;;21.10;101479.00;;;;2077015;28;20219;-45
2021/11/09 05:24:20;;;;;;;5.20;4.30;;;;;21.10;101488.00;;;;2073849;28;20267;-46
2021/11/09 05:25:21;;;;;;;5.70;4.47;;;;;21.20;101487.00;;;;2071545;28;20284;-46
2021/11/09 05:26:21;;;;;;;4.97;4.13;;;;;21.10;101485.00;;;;2070603;28;20206;-45
2021/11/09 05:27:21;;;;;;;4.83;3.93;;;;;21.10;101484.00;;;;2071717;28;20806;-45
2021/11/09 05:28:24;;;;;;;6.30;4.33;;;;;21.10;101490.00;;;;2071602;28;20278;-47
2021/11/09 05:29:25;;;;;;;5.10;4.22;;;;;21.10;101493.00;;;;2075232;28;20295;-46
2021/11/09 05:30:25;;;;;;;5.70;4.30;;;;;21.10;101490.00;;;;2079743;28;20221;-46
2021/11/09 05:31:25;;;;;;;5.13;3.97;;;;;21.10;101498.00;;;;2073615;28;20603;-45
2021/11/09 05:32:26;;;;;;;5.47;3.83;;;;;21.10;101494.00;;;;2071698;28;20721;-45
2021/11/09 05:33:27;;;;;;;4.30;3.90;;;;;21.10;101498.00;;;;2071772;28;20226;-48
2021/11/09 05:34:29;;;;;;;5.37;3.97;;;;;21.10;101496.00;;;;2071580;28;20272;-47
2021/11/09 05:35:30;;;;;;;5.10;3.92;;;;;21.10;101492.00;;;;2071625;28;20457;-46
2021/11/09 05:36:33;;;;;;;6.17;4.30;;;;;21.10;101497.00;;;;2075399;28;20213;-50
2021/11/09 05:37:39;;;;;;;5.75;4.13;;;;;21.10;101496.00;;;;2071389;28;20285;-48
2021/11/09 05:39:29;;;;;;;5.38;4.10;;;;;21.10;101501.00;;;;2071303;28;20305;-49
2021/11/09 05:40:05;;;;;;;5.90;4.25;;;;;21.10;101494.00;;;;2074066;28;20218;-51
2021/11/09 05:41:09;;;;;;;5.13;4.10;;;;;21.10;101499.00;;;;2079655;28;20256;-47
2021/11/09 05:42:09;;;;;;;5.15;3.75;;;;;21.10;101494.00;;;;2079301;28;20209;-48
2021/11/09 05:43:09;;;;;;;6.37;4.93;;;;;21.10;101497.00;;;;2079639;28;20868;-48
2021/11/09 05:44:10;;;;;;;5.47;4.60;;;;;21.10;101499.00;;;;2079872;28;21105;-47
2021/11/09 05:45:10;;;;;;;5.80;4.40;;;;;21.10;101497.00;;;;2079191;28;20595;-50
2021/11/09 05:46:10;;;;;;;4.87;3.80;;;;;21.00;101501.00;;;;2079597;28;20766;-49
2021/11/09 05:47:11;;;;;;;8.27;4.57;;;;;21.00;101507.00;;;;2079841;28;20288;-50
2021/11/09 05:48:12;;;;;;;4.87;4.03;;;;;21.00;101508.00;;;;2079422;28;20206;-46
2021/11/09 05:49:12;;;;;;;5.70;4.13;;;;;21.10;101497.00;;;;2078969;28;20457;-51
2021/11/09 05:50:13;;;;;;;6.50;4.33;;;;;21.10;101502.00;;;;2079742;28;20978;-51
2021/11/09 05:51:13;;;;;;;5.70;3.90;;;;;21.00;101508.00;;;;2073482;28;20349;-52
2021/11/09 05:52:14;;;;;;;5.83;3.83;;;;;21.10;101502.00;;;;2077248;28;20733;-47
2021/11/09 05:53:14;;;;;;;6.30;3.50;;;;;21.10;101522.00;;;;2072948;28;20237;-47
2021/11/09 05:54:14;;;;;;;5.57;4.50;;;;;21.00;101507.00;;;;2072919;28;20220;-51
2021/11/09 05:55:15;;;;;;;5.57;3.77;;;;;21.00;101512.00;;;;2071622;28;20699;-50
2021/11/09 05:56:15;;;;;;;6.93;4.50;;;;;21.10;101510.00;;;;2071441;28;20214;-52
2021/11/09 05:57:16;;;;;;;9.43;4.00;;;;;21.10;101507.00;;;;2071596;28;20210;-49
2021/11/09 05:58:16;;;;;;;5.60;4.30;;;;;21.20;101519.00;;;;2071259;28;20667;-48
2021/11/09 05:59:16;;;;;;;5.60;3.97;;;;;21.10;101508.00;;;;2074094;28;20244;-47
2021/11/09 06:00:17;;;;;;;4.80;3.80;;;;;21.20;101508.00;;;;2079539;28;20214;-48
2021/11/09 06:01:17;;;;;;;6.00;4.50;;;;;21.10;101514.00;;;;2071874;28;20214;-49
2021/11/09 06:02:17;;;;;;;5.23;4.00;;;;;21.20;101511.00;;;;2079250;28;20210;-50
2021/11/09 06:03:22;;;;;;;5.40;3.93;;;;;21.20;101521.00;;;;2079651;28;21167;-47
2021/11/09 06:04:24;;;;;;;6.38;4.25;;;;;21.30;101514.00;;;;2079540;28;20741;-49
2021/11/09 06:05:24;;;;;;;5.53;4.00;;;;;21.20;101518.00;;;;2079609;28;20220;-47
2021/11/09 06:06:25;;;;;;;5.43;4.83;;;;;21.30;101526.00;;;;2079690;28;20213;-48
2021/11/09 06:07:25;;;;;;;6.63;4.00;;;;;21.30;101528.00;;;;2079635;28;20201;-50
2021/11/09 06:08:25;;;;;;;8.30;4.03;;;;;21.30;101525.00;;;;2071348;28;20756;-49
2021/11/09 06:09:26;;;;;;;5.60;3.50;;;;;21.30;101516.00;;;;2070284;28;20198;-48
2021/11/09 06:10:26;;;;;;;5.67;4.10;;;;;21.30;101519.00;;;;2071485;28;20214;-48
2021/11/09 06:11:26;;;;;;;7.20;4.00;;;;;21.30;101521.00;;;;2071072;28;20203;-47
2021/11/09 06:12:27;;;;;;;6.80;4.23;;;;;21.30;101521.00;;;;2071312;28;20579;-49
2021/11/09 06:13:28;;;;;;;6.70;4.13;;;;;21.30;101515.00;;;;2071407;28;20841;-48
2021/11/09 06:14:28;;;;;;;6.53;3.97;;;;;21.30;101520.00;;;;2070930;28;20309;-48
2021/11/09 06:15:28;;;;;;;9.03;4.20;;;;;21.40;101520.00;;;;2071305;28;20449;-48
2021/11/09 06:16:29;;;;;;;8.57;4.60;;;;;21.40;101524.00;;;;2071334;28;20202;-47
2021/11/09 06:17:29;;;;;;;7.87;4.17;;;;;21.40;101527.00;;;;2071378;28;20210;-48
2021/11/09 06:18:29;;;;;;;9.80;4.77;;;;;21.30;101534.00;;;;2071248;28;20214;-47
2021/11/09 06:19:30;;;;;;;7.17;4.20;;;;;21.40;101522.00;;;;2070487;28;20297;-49
2021/11/09 06:20:30;;;;;;;6.47;3.80;;;;;21.40;101519.00;;;;2070979;28;20211;-49
2021/11/09 06:21:31;;;;;;;5.93;4.30;;;;;21.40;101526.00;;;;2072893;28;20697;-47
2021/11/09 06:22:31;;;;;;;6.73;3.83;;;;;21.40;101528.00;;;;2072878;28;20686;-47
2021/11/09 06:23:32;;;;;;;8.80;4.20;;;;;21.40;101529.00;;;;2073100;28;20457;-47
2021/11/09 06:24:32;;;;;;;6.37;4.40;;;;;21.40;101528.00;;;;2072901;28;20584;-50
2021/11/09 06:25:32;;;;;;;7.47;4.30;;;;;21.40;101526.00;;;;2071089;28;20242;-48
2021/11/09 06:26:33;;;;;;;8.30;4.10;;;;;21.40;101527.00;;;;2070652;28;20222;-51
2021/11/09 06:27:33;;;;;;;7.13;4.27;;;;;21.40;101531.00;;;;2070585;28;20213;-49
2021/11/09 06:28:34;;;;;;;5.70;4.10;;;;;21.30;101539.00;;;;2070941;28;20249;-48
2021/11/09 06:29:35;;;;;;;8.77;4.60;;;;;21.40;101535.00;;;;2068119;28;20379;-50
2021/11/09 06:30:36;;;;;;;7.43;4.55;;;;;21.40;101543.00;;;;2078331;28;20301;-47
2021/11/09 06:31:37;;;;;;;8.77;4.47;;;;;21.40;101533.00;;;;2077701;28;20217;-50
2021/11/09 06:32:37;;;;;;;6.13;4.17;;;;;21.40;101530.00;;;;2078691;28;20205;-48
2021/11/09 06:33:37;;;;;;;4.40;3.70;;;;;21.40;101536.00;;;;2078493;28;20486;-48